Smithfield - 24 Hour Table
Date & TimeSolar
Radiation
(W/m²)
Wind
Speed
(mph)
Wind
Direction
(degrees)
Air
Temperature
(°F)
Relative
Humidity
(%)
Precipitation
(inches)
2018/10/15 22:00 0 4.0 37 37.3 56 0.00
2018/10/15 21:00 0 4.6 57 37.8 55 0.00
2018/10/15 20:00 0 4.1 53 39.1 53 0.00
2018/10/15 19:00 0 3.5 64 41.4 46 0.00
2018/10/15 18:00 34 2.3 24 46.2 41 0.00
2018/10/15 17:00 146 3.5 348 48.7 32 0.00
2018/10/15 16:00 282 3.5 332 48.8 33 0.00
2018/10/15 15:00 506 3.4 258 47.5 33 0.00
2018/10/15 14:00 608 3.8 261 45.0 31 0.00
2018/10/15 13:00 656 3.8 299 43.0 37 0.00
2018/10/15 12:00 645 3.3 304 40.1 42 0.00
2018/10/15 11:00 578 3.6 334 36.4 46 0.00
2018/10/15 10:00 461 2.5 224 33.1 56 0.00
2018/10/15 09:00 305 2.9 195 30.0 70 0.00
2018/10/15 08:00 79 1.5 88 24.9 63 0.00
2018/10/15 07:00 3 2.4 38 23.4 74 0.00
2018/10/15 06:00 0 2.2 37 23.6 72 0.00
2018/10/15 05:00 0 1.7 49 24.6 72 0.00
2018/10/15 04:00 0 3.4 57 26.4 60 0.00
2018/10/15 03:00 0 4.1 51 26.2 57 0.00
2018/10/15 02:00 0 2.6 59 26.1 61 0.00
2018/10/15 01:00 0 3.0 54 27.9 55 0.00
2018/10/15 00:00 0 3.3 38 28.3 56 0.00
2018/10/14 23:00 0 3.2 73 28.9 55 0.00